Observations for CARDIFF-WALES ARPT, United Kingdom (EGFF)

EGFF 211720Z 27018G29KT 1800 RA BR OVC003 10/10 Q1006   
EGFF 211650Z 27020G32KT 1800 -RA BR OVC002 10/10 Q1006 RERA 
EGFF 211620Z 27021G32KT 2400 RA BR FEW001 BKN002 10/10 Q1006 RESHRA 
EGFF 211550Z 27019G30KT 2900 RA BR BKN002 10/10 Q1006   
EGFF 211520Z 27017KT 1300 R30/P1500 RA BR OVC002CB 10/10 Q1006 RERA 
EGFF 211450Z 27014KT 0900 -RA FG OVC002CB 10/10 Q1007 RERA  
EGFF 211420Z 27008KT 2700 RA BR SCT003CB BKN004 OVC015 08/08 Q1007 RERA 
EGFF 211350Z 26004KT 230V290 2500 RA BR FEW003 BKN005CB 08/08 Q1008 
EGFF 211320Z VRB02KT 2600 RA BR BKN005 OVC009TCU 08/08 Q1008
EGFF 211250Z VRB02KT 2000 -RA BR FEW003TCU BKN005 OVC016 07/07 Q1008 RERA   
EGFF 211220Z 04005KT 010V080 0600 R12/P1500 RA FG FEW002TCU BKN005 OVC018 06/06 Q1009   
EGFF 211150Z 10006KT 0600 R12/1100 RA FG BKN002TCU OVC016 06/06 Q1009   
EGFF 211120Z 11007KT 0350 R12/0600 -RA FG VV/// 06/06 Q1010 RERA
EGFF 211050Z 11008KT 0900 R12/P1500 RA FG OVC001TCU 05/05 Q1010 
EGFF 211020Z 11011KT 0900 R12/P1500 RA FG OVC001TCU 05/05 Q1010 
EGFF 210950Z AUTO 12013KT 2200 +RA OVC002/// //////TCU 04/04 Q1010  
EGFF 210920Z 12013KT 2500 -RA BR OVC002TCU 04/04 Q1011 RERA 
EGFF 210850Z 12014KT 1700 RA BR OVC002TCU 04/04 Q1011   
EGFF 210820Z 12013KT 1200 R12/P1500 RA BR OVC002TCU 04/04 Q1011 
EGFF 210750Z 12011KT 1400 R12/P1500 -RA BR OVC001 04/04 Q1011   
EGFF 210720Z AUTO 12012KT 1000 R12/P1500 +RA OVC001 04/04 Q1011 REDZ
EGFF 210650Z 12010KT 1200 R12/P1500 -RADZ BR OVC002 03/03 Q1012 
EGFF 210620Z 12010KT 1300 -RADZ BR OVC002 03/03 Q1012   
EGFF 210550Z 12010KT 2000 -DZ BR OVC003 03/03 Q1013 RERA
EGFF 210520Z AUTO 12009KT 3700 BR BKN005 OVC034 03/03 Q1013 
EGFF 210450Z AUTO 13011KT 4600 BR BKN005 BKN034 OVC049 03/03 Q1013  
EGFF 210420Z AUTO 12009KT 6000 -RA BKN006 BKN017 BKN035 03/03 Q1013 
EGFF 210350Z 09007KT 060V120 7000 SCT021TCU 03/03 Q1014 
EGFF 210320Z 11009KT 9999 FEW008 SCT035 03/03 Q1013 
EGFF 210250Z AUTO 11008KT 6000 -RA FEW030 SCT040 03/03 Q1013
EGFF 210220Z AUTO 09006KT 9999 FEW009 03/03 Q1013   
EGFF 210150Z AUTO 12006KT 9999 BKN010 03/02 Q1013   
EGFF 210120Z AUTO 12005KT 9999 SCT012 03/02 Q1013   
EGFF 210050Z AUTO 10005KT 4900 BR NCD 02/01 Q1013   
EGFF 210020Z 09004KT CAVOK 02/01 Q1012  
EGFF 202350Z AUTO 09004KT 9999 NCD 02/01 Q1012  
EGFF 202320Z AUTO 08003KT 9999 SCT021 02/01 Q1012   
EGFF 202250Z 08004KT CAVOK 02/01 Q1011  
EGFF 202220Z AUTO 05005KT 9999 NCD 03/02 Q1010  
EGFF 202150Z AUTO 06007KT 9999 NCD 02/02 Q1010  
EGFF 202120Z AUTO 05010KT 9999 BKN020 03/02 Q1009   
EGFF 202050Z AUTO 05009KT 9999 BKN020 03/02 Q1009   
EGFF 202020Z AUTO 04005KT 360V070 9999 NCD 04/03 Q1008  
EGFF 201950Z AUTO 02007KT 9999 SCT017 04/03 Q1007   
EGFF 201920Z AUTO 02007KT 9999 BKN015 05/04 Q1006   
EGFF 201850Z AUTO 01007KT 9999 BKN012 BKN018 07/05 Q1005
EGFF 201820Z AUTO 30008KT 9999 SCT022 BKN027 07/06 Q1004
EGFF 201750Z AUTO 31015KT 9999 NCD 07/05 Q1003  
EGFF 201720Z AUTO 31019KT 9999 SCT025 BKN033 08/06 Q1001
EGFF 201650Z AUTO 30020KT 9999 BKN025 BKN033 09/08 Q1000